AirNav   Pilot Hours Calculator
 
 1113 users online  

3O1 Gustine Airport
Gustine, California, USA

GOING TO GUSTINE?


FAA INFORMATION EFFECTIVE 07 NOVEMBER 2019

Location

FAA Identifier: 3O1
Lat/Long: 37-15-38.0000N 120-57-51.3000W
37-15.633333N 120-57.855000W
37.2605556,-120.9642500
(estimated)
Elevation: 79.2 ft. / 24.1 m (surveyed)
Variation: 16E (1985)
From city: 2 miles E of GUSTINE, CA
Time zone: UTC -8 (UTC -7 during Daylight Saving Time)
Zip code: 95322

Airport Operations

Airport use: Open to the public
Activation date: 04/1946
Control tower: no
ARTCC: OAKLAND CENTER
FSS: RANCHO MURIETA FLIGHT SERVICE STATION
NOTAMs facility: RIU (NOTAM-D service available)
Attendance: UNATNDD
Pattern altitude: 879.2 ft. MSL
Wind indicator: lighted
Segmented circle: yes
Lights: MIRL RY 18/36 PRESET LOW INTST TO INCR INTST ACTVT CTAF. ACTVT PAPI RY 18 AND PAPI RY 36 CTAF 5 CLICKS.
Beacon: white-green (lighted land airport)
Operates sunset to sunrise.

Airport Communications

CTAF: 122.9
WX AWOS-3 at LSN (13 nm S): 118.675 (209-827-7084)

Nearby radio navigation aids

VOR radial/distance  VOR name  Freq  Var
MODr164/22.0MODESTO VOR/DME114.6017E
HYPr260/27.1EL NIDO VOR/DME114.2015E
PXNr329/33.9PANOCHE VORTAC112.6016E

Airport Services

Fuel available: 100LL
AUTOMATED CREDIT CARD FUEL SYS 24 HRS.
Parking: tiedowns

Runway Information

Runway 18/36

Dimensions: 3207 x 60 ft. / 977 x 18 m
Surface: asphalt, in fair condition
Weight bearing capacity: 
Single wheel: 12.0
Runway edge lights: medium intensity
RUNWAY 18  RUNWAY 36
Latitude: 37-15.887940N37-15.379753N
Longitude: 120-57.764983W120-57.946400W
Elevation: 77.8 ft.79.2 ft.
Traffic pattern: leftleft
Runway heading: 180 magnetic, 196 true000 magnetic, 016 true
Markings: basic, in fair conditionbasic, in fair condition
Visual slope indicator: 2-light PAPI on left (3.00 degrees glide path)2-light PAPI on left (3.00 degrees glide path)
Runway end identifier lights: nono
Touchdown point: yes, no lightsyes, no lights
Obstructions: 15 ft. road, 490 ft. from runway, 155 ft. right of centerline, 19:1 slope to clear35 ft. pline, 1450 ft. from runway, 530 ft. left of centerline, 36:1 slope to clear

Airport Ownership and Management from official FAA records

Ownership: Publicly-owned
Owner: CITY OF GUSTINE
PO BOX 16, 352 FIFTH STREET
GUSTINE, CA 95322-0016
Phone 209-854-6471
Manager: DOUGLAS DUNFORD
PO BOX 16, 352 FIFTH STREET
GUSTINE, CA 95322-0016
Phone 209-854-6183
CITY HALL

Airport Operational Statistics

Aircraft based on the field: 17
Single engine airplanes: 14
Multi engine airplanes: 1
Ultralights: 2
    
Aircraft operations: avg 22/day *
75% local general aviation
25% transient general aviation
* for 12-month period ending 06 November 2018

Additional Remarks

675 X 50 PAVED RY SAFETY AREA AT NORTH END OF RY UNUSABLE FOR TKOF/LNDG.
BIRD ACTIVITY INVOF ARPT.
FOR CD CTC NORCAL APCH AT 916-361-0516.

Instrument Procedures

There are no published instrument procedures at 3O1.

Some nearby airports with instrument procedures:

KLSN - Los Banos Municipal Airport (13 nm S)
KMER - Castle Airport (20 nm E)
KMCE - Merced Regional Airport/Macready Field (22 nm E)
KMOD - Modesto City-County Airport-Harry Sham Field (22 nm N)
KCVH - Hollister Municipal Airport (31 nm SW)
 
Loc | Ops | Rwys | IFR | FBO | Links
Com | Nav | Svcs | Stats | Notes
Area around 3O1 (Gustine Airport)
 
Road maps at: MapQuest Bing Google
 
Aerial photo
WARNING: Photo may not be current or correct
Aerial photo of 3O1 (Gustine Airport)
Photo by Mike Musson

Do you have a better or more recent aerial photo of Gustine Airport that you would like to share? If so, please send us your photo.

 
Sectional chart

 
Airport distance calculator
Flying to Gustine Airport? Find the distance to fly.

From to 3O1

Sunrise and sunset
Times for 13-Nov-2019
 Local
(UTC-8)
 Zulu
(UTC)
Morning civil twilight06:1414:14
Sunrise06:4214:42
Sunset16:5400:54
Evening civil twilight17:2201:22

Current date and time
Zulu (UTC)  13-Nov-2019 22:53:08
Local (UTC-8)  13-Nov-2019 14:53:08
 
METAR
KMER 
20nm E 
132145Z 00000KT 8SM HZ SKC 25/06 A2994
KMOD 
21nm N 
132153Z 00000KT 9SM CLR 23/07 A2994 RMK AO2 SLP137 T02280067
KMCE 
22nm E 
132153Z AUTO 00000KT 7SM CLR 23/06 A2993 RMK AO2 SLP135 T02330061
KCVH 
31nm SW 
132240Z AUTO 26011KT 10SM CLR 17/10 A2997 RMK A01
KE16 
32nm W 
132235Z AUTO 14008KT 10SM CLR 20/09 A2996 RMK AO2
KTCY 
34nm NW 
132235Z AUTO 00000KT 9SM CLR 22/07 A2994 RMK A01
KSCK 
39nm N 
132155Z 33004KT 7SM CLR 23/08 A2994 RMK AO2 SLP138 T02330078
TAF
KMER 
20nm E 
131720Z 1318/1418 VRB04KT 5SM HZ BKN200
KMOD 
21nm N 
131736Z 1318/1418 VRB04KT 6SM HZ BKN250 FM132200 VRB04KT P6SM BKN250 FM141000 00000KT 6SM HZ OVC250
KMCE 
22nm E 
131720Z 1318/1418 VRB04KT 5SM HZ BKN200
NOTAMs
Click for the latest NOTAMs
NOTAMs are issued by the DoD/FAA and will open in a separate window not controlled by AirNav.

 

 
 

FBO, Fuel Providers, and Aircraft Ground Support

  
 Business Name 
 
 Contact 
 
 Services / Description 
 
Fuel Prices
 
Comments
  
Gustine Airport 209-854-6471
[web site]
[email]
Airport management, Aviation fuel, Public telephone, Restrooms

More info about Gustine Airport
independent
100LL
SS $4.65 
GUARANTEED
 
   1 read write
SS=Self service
Update Fuel Prices
 

Would you like to see your business listed on this page?

 If your business provides an interesting product or service to pilots, flight crews, aircraft, or users of the Gustine Airport, you should consider listing it here.  To start the listing process, click on the button below
 
Add a business
 

Other Pages about Gustine Airport

Update a link
 
Copyright © AirNav, LLC. All rights reserved. Privacy Policy  Contact